Flight Track Log - Related Links

Times and Time Zones

All times are in EDT time to prevent confusion due to time zone crossing. See the SWA3608 flight status page for this flight to view local times or setup timezone preferences in your user account.

Time Position Orientation Groundspeed Altitude Reporting Facility
EDT Latitude Longitude Course Direction KTS MPH feet Rate Location/Type
Sat 06:38:47 PM 26.6503 -81.8628 16° North 289 333 8,200  Level Miami Center
Sat 06:39:47 PM 26.7306 -81.8383 15° North 289 333 10,700 2,050 Climbing Miami Center
Sat 06:40:47 PM 26.8144 -81.8278 North 309 356 12,300 1,950 Climbing Miami Center
Sat 06:41:00 PM 26.5783 -81.7525 North  Level FlightAware Approximate
Sat 06:41:47 PM 26.9144 -81.8322 358° North 346 398 14,600  Level Miami Center
Sat 06:42:00 PM 26.6776 -81.7500 North  Level FlightAware Approximate
Sat 06:42:47 PM 27.0292 -81.8372 358° North 364 419 16,900  Level Miami Center
Sat 06:43:47 PM 27.1375 -81.8417 358° North 374 430 17,900 1,250 Climbing Miami Center
Sat 06:44:47 PM 27.2478 -81.8489 357° North 386 444 19,400 1,750 Climbing Miami Center
Sat 06:45:47 PM 27.3494 -81.8625 353° North 402 463 21,400 1,950 Climbing Miami Center
Sat 06:46:47 PM 27.4550 -81.8881 348° North 402 463 23,300 1,600 Climbing Miami Center
Sat 06:47:47 PM 27.5794 -81.9172 348° North 409 471 24,600 1,000 Climbing Miami Center
Sat 06:49:29 PM 27.7689 -81.9639 348° North 408 470 26,000 519 Climbing Jacksonville Center
Sat 06:50:29 PM 27.8775 -81.9864 350° North 413 475 26,000  Level Jacksonville Center
Sat 06:51:29 PM 27.9864 -82.0158 347° North 408 470 26,000  Level Jacksonville Center
Sat 06:52:29 PM 28.0828 -82.0739 332° Northwest 398 458 26,000  Level Jacksonville Center
Sat 06:53:29 PM 28.1789 -82.1367 330° Northwest 393 452 26,000 550 Level Jacksonville Center
Sat 06:54:29 PM 28.2775 -82.1997 331° Northwest 393 452 27,100 1,400 Climbing Jacksonville Center
Sat 06:55:29 PM 28.3717 -82.2603 331° Northwest 399 459 28,800 1,800 Climbing Jacksonville Center
Sat 06:56:29 PM 28.4783 -82.3258 332° Northwest 394 453 30,700 1,600 Climbing Jacksonville Center
Sat 06:57:29 PM 28.5664 -82.3844 330° Northwest 388 447 32,000 650 Climbing Jacksonville Center
Sat 06:58:29 PM 28.6375 -82.4336 329° Northwest 376 433 32,000  Level Jacksonville Center
Sat 06:59:29 PM 28.7211 -82.5233 317° Northwest 360 414 32,000  Level Jacksonville Center
Sat 07:00:29 PM 28.7944 -82.6036 316° Northwest 355 409 32,000  Level Jacksonville Center
Sat 07:01:29 PM 28.8678 -82.6839 316° Northwest 360 414 32,000  Level Jacksonville Center
Sat 07:02:29 PM 28.9428 -82.7669 316° Northwest 360 414 32,000  Level Jacksonville Center
Sat 07:03:29 PM 29.0181 -82.8475 317° Northwest 360 414 32,000  Level Jacksonville Center
Sat 07:04:29 PM 29.0911 -82.9283 316° Northwest 360 414 32,000 -50 Level Jacksonville Center
Sat 07:05:29 PM 29.1642 -83.0092 316° Northwest 360 414 31,900 450 Descending Jacksonville Center
Sat 07:06:29 PM 29.2331 -83.0831 317° Northwest 348 400 32,900 1,050 Climbing Jacksonville Center
Sat 07:07:29 PM 29.2956 -83.1544 315° West 335 386 34,000 550 Climbing Jacksonville Center
Sat 07:08:29 PM 29.3642 -83.2286 317° Northwest 328 377 34,000 -50 Level Jacksonville Center
Sat 07:09:29 PM 29.4267 -83.3003 315° West 328 377 33,900  Descending Jacksonville Center
Sat 07:10:29 PM 29.4764 -83.3911 302° West 328 377 34,000 50 Climbing Jacksonville Center
Sat 07:11:29 PM 29.5261 -83.4822 302° West 328 377 34,000  Level Jacksonville Center
Sat 07:12:29 PM 29.5694 -83.5636 301° West 334 384 34,000  Level Jacksonville Center
Sat 07:13:29 PM 29.6192 -83.6522 303° West 334 384 34,000 -50 Level Jacksonville Center
Sat 07:14:29 PM 29.6686 -83.7436 302° West 339 390 33,900  Descending Jacksonville Center
Sat 07:15:29 PM 29.7203 -83.8347 303° West 339 390 34,000 50 Climbing Jacksonville Center
Sat 07:16:29 PM 29.7717 -83.9286 302° West 339 390 34,000  Level Jacksonville Center
Sat 07:17:29 PM 29.8231 -84.0178 304° West 339 390 34,000  Level Jacksonville Center
Sat 07:18:29 PM 29.8767 -84.1094 304° West 344 396 34,000  Level Jacksonville Center
Sat 07:19:29 PM 29.9300 -84.1986 305° West 344 396 34,000  Level Jacksonville Center
Sat 07:20:29 PM 29.9833 -84.2906 304° West 344 396 34,000  Level Jacksonville Center
Sat 07:21:29 PM 30.0386 -84.3825 305° West 351 404 34,000 -50 Level Jacksonville Center
Sat 07:22:29 PM 30.0917 -84.4769 303° West 351 404 33,900 -50 Descending Jacksonville Center
Sat 07:23:29 PM 30.1428 -84.5619 305° West 344 396 33,900 50 Level Jacksonville Center
Sat 07:24:29 PM 30.1981 -84.6469 307° West 339 390 34,000 50 Climbing Jacksonville Center
Sat 07:25:29 PM 30.2533 -84.7322 307° West 339 390 34,000  Level Jacksonville Center
Sat 07:26:29 PM 30.3061 -84.8197 305° West 339 390 34,000 -50 Level Jacksonville Center
Sat 07:27:29 PM 30.3633 -84.9075 307° West 339 390 33,900 -50 Descending Jacksonville Center
Sat 07:28:29 PM 30.4161 -84.9956 305° West 339 390 33,900 50 Level Jacksonville Center
Sat 07:29:29 PM 30.4692 -85.0786 307° West 339 390 34,000  Climbing Jacksonville Center
Sat 07:30:29 PM 30.5219 -85.1617 306° West 334 384 33,900  Descending Jacksonville Center
Sat 07:31:29 PM 30.5789 -85.2500 307° West 334 384 34,000 50 Climbing Jacksonville Center
Sat 07:32:29 PM 30.6336 -85.3311 308° West 334 384 34,000  Level Jacksonville Center
Sat 07:33:29 PM 30.6903 -85.4194 307° West 334 384 34,000 -50 Level Jacksonville Center
Sat 07:34:29 PM 30.7472 -85.5031 308° West 334 384 33,900  Descending Jacksonville Center
Sat 07:35:29 PM 30.8208 -85.5728 321° Northwest 334 384 34,000 50 Climbing Jacksonville Center
Sat 07:36:29 PM 30.8903 -85.6425 319° Northwest 334 384 34,000  Level Jacksonville Center
Sat 07:37:29 PM 30.9575 -85.7147 317° Northwest 334 384 34,000  Level Jacksonville Center
Sat 07:38:29 PM 31.0250 -85.7847 318° Northwest 334 384 34,000  Level Jacksonville Center
Sat 07:40:03 PM 31.1397 -85.9117 317° Northwest 332 382 34,000  Level Atlanta Center
Sat 07:41:03 PM 31.2117 -85.9883 318° Northwest 338 389 34,000  Level Atlanta Center
Sat 07:42:03 PM 31.2856 -86.0678 317° Northwest 344 396 34,000  Level Atlanta Center
Sat 07:43:03 PM 31.3572 -86.1447 317° Northwest 344 396 34,000  Level Atlanta Center
Sat 07:44:03 PM 31.4289 -86.2267 316° Northwest 344 396 34,000  Level Atlanta Center
Sat 07:45:03 PM 31.5006 -86.3014 318° Northwest 344 396 34,000  Level Atlanta Center
Sat 07:46:03 PM 31.5722 -86.3811 317° Northwest 349 402 34,000  Level Atlanta Center
Sat 07:47:03 PM 31.6456 -86.4611 317° Northwest 349 402 34,000 850 Level Atlanta Center
Sat 07:48:03 PM 31.7172 -86.5389 317° Northwest 349 402 35,700 1,000 Climbing Atlanta Center
Sat 07:49:03 PM 31.7825 -86.6089 318° Northwest 341 392 36,000 150 Climbing Atlanta Center
Sat 07:50:03 PM 31.8519 -86.6844 317° Northwest 336 387 36,000  Level Atlanta Center
Sat 07:51:03 PM 31.9192 -86.7597 316° Northwest 336 387 36,000  Level Atlanta Center
Sat 07:52:03 PM 31.9883 -86.8328 318° Northwest 342 394 36,000  Level Atlanta Center
Sat 07:53:03 PM 32.0575 -86.9108 316° Northwest 342 394 36,000  Level Atlanta Center
Sat 07:54:03 PM 32.1225 -86.9867 315° West 342 394 36,000  Level Atlanta Center
Sat 07:55:03 PM 32.1939 -87.0600 319° Northwest 342 394 36,000  Level Atlanta Center
Sat 07:56:03 PM 32.2631 -87.1361 317° Northwest 342 394 36,000  Level Atlanta Center
Sat 07:57:03 PM 32.3300 -87.2122 316° Northwest 342 394 36,000  Level Atlanta Center
Sat 07:58:03 PM 32.3947 -87.2833 317° Northwest 337 388 36,000  Level Atlanta Center
Sat 07:59:03 PM 32.4597 -87.3572 316° Northwest 347 399 36,000  Level Atlanta Center
Sat 08:00:03 PM 32.5306 -87.4336 318° Northwest 338 389 36,000  Level Atlanta Center
Sat 08:02:13 PM 32.6633 -87.5831 317° Northwest 330 380 36,000  Level Memphis Center
Sat 08:03:14 PM 32.7356 -87.6661 316° Northwest 330 380 36,000  Level Memphis Center
Sat 08:04:15 PM 32.8011 -87.7408 316° Northwest 329 379 36,000  Level Memphis Center
Sat 08:05:17 PM 32.8681 -87.8153 317° Northwest 329 379 36,000  Level Memphis Center
Sat 08:06:18 PM 32.9347 -87.8917 316° Northwest 329 379 36,000  Level Memphis Center
Sat 08:07:19 PM 33.0008 -87.9664 317° Northwest 329 379 36,000  Level Memphis Center
Sat 08:08:21 PM 33.0675 -88.0428 316° Northwest 329 379 36,000  Level Memphis Center
Sat 08:09:22 PM 33.1342 -88.1203 316° Northwest 330 380 36,000  Level Memphis Center
Sat 08:10:23 PM 33.2147 -88.2111 317° Northwest 330 380 36,000  Level Memphis Center
Sat 08:11:25 PM 33.2797 -88.2867 316° Northwest 330 380 36,000  Level Memphis Center
Sat 08:12:26 PM 33.3472 -88.3631 317° Northwest 332 382 36,000  Level Memphis Center
Sat 08:13:27 PM 33.4131 -88.4389 316° Northwest 332 382 36,000  Level Memphis Center
Sat 08:14:29 PM 33.4783 -88.5147 316° Northwest 332 382 36,000  Level Memphis Center
Sat 08:15:30 PM 33.5478 -88.5958 316° Northwest 332 382 36,000  Level Memphis Center
Sat 08:16:31 PM 33.6142 -88.6731 316° Northwest 332 382 36,000  Level Memphis Center
Sat 08:17:32 PM 33.6811 -88.7494 316° Northwest 332 382 36,000  Level Memphis Center
Sat 08:18:33 PM 33.7542 -88.8361 315° West 332 382 36,000  Level Memphis Center
Sat 08:19:35 PM 33.8211 -88.9144 316° Northwest 331 381 36,000  Level Memphis Center
Sat 08:20:36 PM 33.8872 -88.9900 317° Northwest 331 381 36,000  Level Memphis Center
Sat 08:21:37 PM 33.9528 -89.0686 315° West 331 381 36,000  Level Memphis Center
Sat 08:22:38 PM 34.0186 -89.1458 316° Northwest 331 381 36,000  Level Memphis Center
Sat 08:23:39 PM 34.0842 -89.2236 316° Northwest 331 381 36,000  Level Memphis Center
Sat 08:24:40 PM 34.1503 -89.3006 316° Northwest 331 381 36,000  Level Memphis Center
Sat 08:25:41 PM 34.2164 -89.3803 315° West 331 381 36,000  Level Memphis Center
Sat 08:26:42 PM 34.2828 -89.4581 316° Northwest 331 381 36,000  Level Memphis Center
Sat 08:27:44 PM 34.3489 -89.5381 315° West 332 382 36,000  Level Memphis Center
Sat 08:28:45 PM 34.4147 -89.6169 315° West 332 382 36,000  Level Memphis Center
Sat 08:29:46 PM 34.4944 -89.7128 315° West 332 382 36,000  Level Memphis Center
Sat 08:30:47 PM 34.5603 -89.7925 315° West 332 382 36,000  Level Memphis Center
Sat 08:31:48 PM 34.6272 -89.8728 315° West 332 382 36,000  Level Memphis Center
Sat 08:32:49 PM 34.6936 -89.9531 315° West 333 383 36,000  Level Memphis Center
Sat 08:33:50 PM 34.7608 -90.0336 315° West 333 383 36,000  Level Memphis Center
Sat 08:34:51 PM 34.8272 -90.1147 315° West 333 383 36,000  Level Memphis Center
Sat 08:35:52 PM 34.8939 -90.1947 315° West 333 383 36,000  Level Memphis Center
Sat 08:36:53 PM 34.9600 -90.2758 315° West 333 383 36,000  Level Memphis Center
Sat 08:37:54 PM 35.0272 -90.3558 316° Northwest 334 384 36,000  Level Memphis Center
Sat 08:38:55 PM 35.0944 -90.4386 315° West 337 388 36,000  Level Memphis Center
Sat 08:39:56 PM 35.1614 -90.5211 315° West 338 389 36,000  Level Memphis Center
Sat 08:40:57 PM 35.2286 -90.6047 315° West 339 390 36,000  Level Memphis Center
Sat 08:41:58 PM 35.2953 -90.6869 315° West 339 390 36,000  Level Memphis Center
Sat 08:42:59 PM 35.3622 -90.7694 315° West 339 390 36,000  Level Memphis Center
Sat 08:44:00 PM 35.4289 -90.8531 314° West 340 391 36,000  Level Memphis Center
Sat 08:45:01 PM 35.4956 -90.9339 315° West 340 391 36,000  Level Memphis Center
Sat 08:46:03 PM 35.5750 -91.0319 315° West 339 390 36,000  Level Memphis Center
Sat 08:47:04 PM 35.6397 -91.1150 314° West 339 390 36,000  Level Memphis Center
Sat 08:48:05 PM 35.7089 -91.2003 315° West 339 390 36,000  Level Memphis Center
Sat 08:49:06 PM 35.7756 -91.2844 314° West 340 391 36,000  Level Memphis Center
Sat 08:50:07 PM 35.8422 -91.3675 315° West 340 391 36,000  Level Memphis Center
Sat 08:51:08 PM 35.8989 -91.4411 314° West 340 391 36,000  Level Memphis Center
Sat 08:52:09 PM 35.9761 -91.5367 315° West 345 397 36,000  Level Memphis Center
Sat 08:53:10 PM 36.0419 -91.6214 314° West 345 397 36,000  Level Memphis Center
Sat 08:54:11 PM 36.1094 -91.7075 314° West 345 397 36,000  Level Memphis Center
Sat 08:55:12 PM 36.1764 -91.7933 314° West 345 397 36,000  Level Memphis Center
Sat 08:56:13 PM 36.2489 -91.8858 314° West 351 404 36,000  Level Memphis Center
Sat 08:57:14 PM 36.3164 -91.9708 315° West 351 404 36,000  Level Memphis Center
Sat 08:58:15 PM 36.3850 -92.0592 314° West 351 404 36,000  Level Memphis Center
Sat 08:59:16 PM 36.4525 -92.1472 314° West 352 405 36,000  Level Memphis Center
Sat 09:00:17 PM 36.5186 -92.2331 314° West 353 406 36,000  Level Memphis Center
Sat 09:01:18 PM 36.5881 -92.3231 314° West 353 406 36,000  Level Memphis Center
Sat 09:02:19 PM 36.6711 -92.4319 314° West 355 409 36,000  Level Memphis Center
Sat 09:03:20 PM 36.7417 -92.5222 314° West 358 412 36,000  Level Memphis Center
Sat 09:04:21 PM 36.8108 -92.6136 313° West 358 412 36,000  Level Memphis Center
Sat 09:05:22 PM 36.8803 -92.7044 314° West 358 412 36,000  Level Memphis Center
Sat 09:06:23 PM 36.9506 -92.7969 314° West 360 414 36,000  Level Memphis Center
Sat 09:07:24 PM 37.0222 -92.8903 314° West 363 418 36,000  Level Memphis Center
Sat 09:08:25 PM 37.0919 -92.9844 313° West 364 419 36,000  Level Memphis Center
Sat 09:09:37 PM 37.1783 -93.0978 314° West 366 421 36,000  Level Kansas City Center
Sat 09:10:39 PM 37.2494 -93.1925 313° West 367 422 36,000  Level Kansas City Center
Sat 09:11:40 PM 37.3214 -93.2872 314° West 367 422 36,000  Level Kansas City Center
Sat 09:12:41 PM 37.4092 -93.3644 325° Northwest 389 448 36,000  Level Kansas City Center
Sat 09:13:42 PM 37.5128 -93.4208 337° Northwest 402 463 36,000  Level Kansas City Center
Sat 09:14:44 PM 37.6161 -93.4783 336° Northwest 402 463 36,000  Level Kansas City Center
Sat 09:15:45 PM 37.7206 -93.5367 336° Northwest 403 464 36,000  Level Kansas City Center
Sat 09:16:46 PM 37.8242 -93.5956 336° Northwest 404 465 36,000  Level Kansas City Center
Sat 09:17:47 PM 37.9289 -93.6544 336° Northwest 404 465 36,000 -976 Level Kansas City Center
Sat 09:18:49 PM 38.0339 -93.7119 337° Northwest 407 468 34,000 -2,293 Descending Kansas City Center
Sat 09:19:50 PM 38.1350 -93.7714 335° Northwest 403 464 31,300 -2,410 Descending Kansas City Center
Sat 09:20:51 PM 38.2375 -93.8294 336° Northwest 403 464 29,100 -2,361 Descending Kansas City Center
Sat 09:21:52 PM 38.3533 -93.8931 337° Northwest 383 441 26,500 -2,244 Descending Kansas City Center
Sat 09:22:54 PM 38.4447 -93.9458 336° Northwest 368 423 24,500 -1,902 Descending Kansas City Center
Sat 09:23:55 PM 38.5333 -93.9961 336° Northwest 360 414 22,600 -1,820 Descending Kansas City Center
Sat 09:24:56 PM 38.6161 -94.0422 336° Northwest 343 395 20,800 -1,869 Descending Kansas City Center
Sat 09:25:57 PM 38.7075 -94.1042 332° Northwest 338 389 18,800 -1,820 Descending Kansas City Center
Sat 09:26:58 PM 38.7714 -94.1761 319° Northwest 321 369 17,100 -1,707 Descending Kansas City Center
Sat 09:28:00 PM 38.8344 -94.2453 319° Northwest 316 364 15,300 -1,854 Descending Kansas City Center
Sat 09:29:01 PM 38.9075 -94.3244 320° Northwest 311 358 13,300 -1,623 Descending Kansas City Center
Sat 09:30:02 PM 38.9667 -94.3886 320° Northwest 295 339 12,000 -1,377 Descending Kansas City Center
Sat 09:31:03 PM 39.0325 -94.4606 320° Northwest 278 320 10,500 -1,475 Descending Kansas City Center
Sat 09:32:04 PM 39.0883 -94.5206 320° Northwest 275 316 9,000 -1,512 Descending Kansas City Center
Sat 09:33:06 PM 39.1428 -94.5808 319° Northwest 273 314 7,400 -1,805 Descending Kansas City Center
Sat 09:34:07 PM 39.2128 -94.6283 332° Northwest 277 319 5,300 -1,721 Descending Kansas City Center
Sat 09:35:08 PM 39.2825 -94.6097 12° North 271 312 3,900 -1,033 Descending Kansas City Center
Sat 09:36:09 PM 39.3444 -94.5933 12° North 240 276 3,200 -590 Descending Kansas City Center
Sat 09:37:10 PM 39.3814 -94.6594 306° West 208 239 2,700 -639 Descending Kansas City Center
Sat 09:38:11 PM 39.3533 -94.6881 218° Southwest 141 162 1,900 -738 Descending Kansas City Center
Sat 09:39:12 PM 39.3136 -94.6992 192° South 131 151 1,200 -689 Descending Kansas City Center

Login

Don't have an account? Register now (free) for customized features, flight alerts, and more!